createdAt,value
2022-11-08T00:00:17.289Z,67.26
2022-11-08T00:02:45.198Z,68.13
2022-11-08T00:05:30.529Z,68.87
2022-11-08T00:08:16.235Z,68.34
2022-11-08T00:11:01.807Z,68.56
2022-11-08T00:13:46.931Z,69.55
2022-11-08T00:16:16.014Z,69.70
2022-11-08T00:18:43.788Z,69.92
2022-11-08T00:21:11.580Z,69.18
2022-11-08T00:23:39.384Z,69.55
2022-11-08T00:26:07.135Z,69.79
2022-11-08T00:28:34.876Z,71.29
2022-11-08T00:31:06.503Z,69.77
2022-11-08T00:33:35.609Z,69.45
2022-11-08T00:36:03.628Z,69.07
2022-11-08T00:38:31.406Z,69.82
2022-11-08T00:40:59.138Z,71.53
2022-11-08T00:43:26.897Z,70.79
2022-11-08T00:45:54.660Z,70.35
2022-11-08T00:48:22.417Z,70.27
2022-11-08T00:50:51.557Z,69.92
2022-11-08T00:53:19.404Z,70.44
2022-11-08T00:55:47.184Z,69.63
2022-11-08T00:58:15.187Z,70.31
2022-11-08T01:00:43.248Z,69.86
2022-11-08T01:03:19.822Z,69.25
2022-11-08T01:05:47.717Z,69.96
2022-11-08T01:08:17.477Z,69.32
2022-11-08T01:10:47.728Z,69.32
2022-11-08T01:13:15.794Z,69.21
2022-11-08T01:15:45.789Z,69.73
2022-11-08T01:18:15.050Z,68.72
2022-11-08T01:20:43.690Z,68.28
2022-11-08T01:23:12.521Z,67.30
2022-11-08T01:25:43.313Z,67.47
2022-11-08T01:28:11.577Z,66.62
2022-11-08T01:30:40.457Z,65.70
2022-11-08T01:33:08.349Z,66.30
2022-11-08T01:35:37.532Z,68.06
2022-11-08T01:38:06.229Z,66.71
2022-11-08T01:40:34.677Z,69.06
2022-11-08T01:43:29.655Z,68.96
2022-11-08T01:46:37.752Z,67.78
2022-11-08T01:49:45.148Z,67.89
2022-11-08T01:52:24.316Z,66.64
2022-11-08T01:54:59.724Z,70.00
2022-11-08T01:57:31.411Z,67.03
2022-11-08T02:00:03.254Z,65.90
2022-11-08T02:02:37.074Z,64.85
2022-11-08T02:05:05.764Z,65.91
2022-11-08T02:07:34.257Z,65.10
2022-11-08T02:10:02.270Z,64.03
2022-11-08T02:12:30.344Z,64.35
2022-11-08T02:14:58.142Z,65.49
2022-11-08T02:17:27.417Z,64.35
2022-11-08T02:19:55.221Z,64.51
2022-11-08T02:22:28.156Z,64.71
2022-11-08T02:25:00.142Z,64.19
2022-11-08T02:27:28.119Z,65.71
2022-11-08T02:29:56.838Z,66.50
2022-11-08T02:32:25.771Z,68.08
2022-11-08T02:34:56.327Z,67.52
2022-11-08T02:37:25.201Z,64.85
2022-11-08T02:39:53.217Z,67.55
2022-11-08T02:42:22.638Z,64.51
2022-11-08T02:44:50.555Z,66.32
2022-11-08T02:47:18.564Z,64.01
2022-11-08T02:49:46.281Z,65.32
2022-11-08T02:52:14.116Z,67.11
2022-11-08T02:54:41.872Z,66.93
2022-11-08T02:57:09.652Z,66.87
2022-11-08T02:59:38.727Z,66.31
2022-11-08T03:02:06.917Z,66.85
2022-11-08T03:04:34.844Z,66.49
2022-11-08T03:07:02.612Z,64.26
2022-11-08T03:09:30.352Z,62.36
2022-11-08T03:11:58.168Z,63.40
2022-11-08T03:14:26.037Z,65.53
2022-11-08T03:16:55.202Z,66.50
2022-11-08T03:19:23.107Z,67.60
2022-11-08T03:21:50.842Z,67.29
2022-11-08T03:24:18.633Z,68.53
2022-11-08T03:26:46.385Z,66.13
2022-11-08T03:29:14.144Z,65.84
2022-11-08T03:31:42.056Z,66.09
2022-11-08T03:34:11.965Z,65.10
2022-11-08T03:36:39.861Z,65.11
2022-11-08T03:39:07.598Z,67.30
2022-11-08T03:41:35.380Z,67.53
2022-11-08T03:44:03.130Z,65.32
2022-11-08T03:46:31.058Z,65.49
2022-11-08T03:48:58.861Z,69.38
2022-11-08T03:51:27.939Z,68.94
2022-11-08T03:53:55.702Z,68.99
2022-11-08T03:56:23.524Z,67.97
2022-11-08T03:58:51.277Z,66.61
2022-11-08T04:01:19.097Z,67.69
2022-11-08T04:03:46.919Z,66.67
2022-11-08T04:06:14.649Z,66.35
2022-11-08T04:08:43.736Z,66.57
2022-11-08T04:11:29.220Z,66.16
2022-11-08T04:14:26.167Z,65.79
2022-11-08T04:16:54.095Z,66.78
2022-11-08T04:19:39.486Z,67.43
2022-11-08T04:22:07.753Z,67.33
2022-11-08T04:24:36.863Z,67.15
2022-11-08T04:27:04.818Z,67.83
2022-11-08T04:29:32.543Z,68.44
2022-11-08T04:32:00.324Z,67.48
2022-11-08T04:34:28.069Z,67.71
2022-11-08T04:36:55.834Z,69.23
2022-11-08T04:39:23.597Z,66.88
2022-11-08T04:41:54.553Z,66.49
2022-11-08T04:44:25.560Z,67.52
2022-11-08T04:46:53.481Z,66.72
2022-11-08T04:49:21.210Z,65.96
2022-11-08T04:51:48.989Z,65.95
2022-11-08T04:54:16.727Z,65.46
2022-11-08T04:56:44.506Z,65.85
2022-11-08T04:59:13.563Z,65.52
2022-11-08T05:01:41.469Z,65.56
2022-11-08T05:04:09.282Z,66.10
2022-11-08T05:06:37.043Z,65.85
2022-11-08T05:09:05.119Z,65.69
2022-11-08T05:11:32.941Z,65.74
2022-11-08T05:14:00.678Z,66.07
2022-11-08T05:16:31.831Z,65.09
2022-11-08T05:19:00.250Z,64.93
2022-11-08T05:21:45.748Z,64.86
2022-11-08T05:24:15.926Z,64.98
2022-11-08T05:26:45.449Z,65.81
2022-11-08T05:29:14.194Z,66.02
2022-11-08T05:31:43.219Z,65.31
2022-11-08T05:34:11.164Z,65.47
2022-11-08T05:36:38.937Z,65.84
2022-11-08T05:39:06.700Z,65.94
2022-11-08T05:41:34.478Z,65.57
2022-11-08T05:44:02.178Z,65.52
2022-11-08T05:46:29.965Z,64.71
2022-11-08T05:48:59.180Z,64.09
2022-11-08T05:51:26.944Z,63.77
2022-11-08T05:53:54.697Z,63.53
2022-11-08T05:56:22.408Z,63.66
2022-11-08T05:58:50.193Z,64.04
2022-11-08T06:01:19.328Z,63.74
2022-11-08T06:03:48.292Z,64.27
2022-11-08T06:06:19.110Z,63.90
2022-11-08T06:08:50.233Z,63.37
2022-11-08T06:11:21.401Z,63.56
2022-11-08T06:13:49.337Z,62.77
2022-11-08T06:16:18.756Z,63.20
2022-11-08T06:18:46.977Z,62.78
2022-11-08T06:21:17.819Z,62.74
2022-11-08T06:23:45.629Z,62.67
2022-11-08T06:26:13.842Z,61.76
2022-11-08T06:28:41.791Z,61.30
2022-11-08T06:31:09.691Z,61.16
2022-11-08T06:33:37.456Z,60.51
2022-11-08T06:36:05.589Z,60.22
2022-11-08T06:38:35.176Z,59.38
2022-11-08T06:41:03.563Z,58.43
2022-11-08T06:43:31.303Z,58.50
2022-11-08T06:46:01.258Z,57.88
2022-11-08T06:48:35.062Z,57.41
2022-11-08T06:51:04.401Z,56.73
2022-11-08T06:53:34.193Z,56.19
2022-11-08T06:56:02.192Z,56.71
2022-11-08T06:58:30.376Z,56.29
2022-11-08T07:00:58.167Z,58.56
2022-11-08T07:03:25.936Z,58.97
2022-11-08T07:05:53.704Z,55.33
2022-11-08T07:08:24.029Z,55.34
2022-11-08T07:10:53.569Z,57.58
2022-11-08T07:13:21.842Z,57.90
2022-11-08T07:15:49.816Z,57.86
2022-11-08T07:18:18.974Z,57.63
2022-11-08T07:20:47.046Z,56.45
2022-11-08T07:23:15.126Z,56.33
2022-11-08T07:25:43.103Z,56.63
2022-11-08T07:28:15.669Z,54.40
2022-11-08T07:30:43.427Z,53.45
2022-11-08T07:33:11.349Z,52.87
2022-11-08T07:35:39.566Z,52.76
2022-11-08T07:38:07.548Z,52.71
2022-11-08T07:40:35.918Z,52.29
2022-11-08T07:43:12.650Z,51.46
2022-11-08T07:45:42.965Z,51.13
2022-11-08T07:48:13.308Z,50.56
2022-11-08T07:50:42.197Z,51.58
2022-11-08T07:53:10.205Z,53.07
2022-11-08T07:55:38.517Z,52.99
2022-11-08T07:58:06.749Z,52.77
2022-11-08T08:00:37.167Z,52.47
2022-11-08T08:03:07.828Z,52.03
2022-11-08T08:05:37.344Z,51.42
2022-11-08T08:08:05.600Z,51.22
2022-11-08T08:10:34.876Z,48.81
2022-11-08T08:13:03.132Z,48.62
2022-11-08T08:15:30.956Z,49.06
2022-11-08T08:18:01.041Z,48.98
2022-11-08T08:20:30.514Z,50.25
2022-11-08T08:22:58.636Z,47.70
2022-11-08T08:25:27.473Z,48.56
2022-11-08T08:27:56.718Z,48.90
2022-11-08T08:30:25.907Z,46.38
2022-11-08T08:33:21.999Z,48.24
2022-11-08T08:35:44.052Z,45.75
2022-11-08T08:38:13.229Z,45.24
2022-11-08T08:40:41.432Z,45.09
2022-11-08T08:43:09.246Z,44.84
2022-11-08T08:45:37.142Z,44.75
2022-11-08T08:48:05.718Z,44.23
2022-11-08T08:50:34.516Z,44.37
2022-11-08T08:53:05.732Z,44.37
2022-11-08T08:55:35.260Z,46.37
2022-11-08T08:58:03.475Z,45.46
2022-11-08T09:03:19.991Z,44.06
2022-11-08T09:05:48.555Z,44.29
2022-11-08T09:08:17.669Z,44.76
2022-11-08T09:10:45.912Z,45.93
2022-11-08T09:13:13.665Z,45.32
2022-11-08T09:15:41.419Z,46.72
2022-11-08T09:18:09.549Z,47.03
2022-11-08T09:20:37.443Z,46.32
2022-11-08T09:23:05.368Z,46.55
2022-11-08T09:25:34.493Z,46.28
2022-11-08T09:28:02.252Z,46.69
2022-11-08T09:30:30.020Z,46.69
2022-11-08T09:33:02.355Z,46.82
2022-11-08T09:35:30.861Z,46.33
2022-11-08T09:37:58.777Z,46.54
2022-11-08T09:40:31.626Z,46.29
2022-11-08T09:43:23.185Z,45.49
2022-11-08T09:45:52.979Z,45.84
2022-11-08T09:48:24.392Z,45.45
2022-11-08T09:50:54.171Z,44.92
2022-11-08T09:53:27.425Z,42.39
2022-11-08T09:55:58.172Z,41.75
2022-11-08T09:58:33.061Z,40.91
2022-11-08T10:01:01.056Z,42.20
2022-11-08T10:03:29.622Z,40.74
2022-11-08T10:06:19.596Z,41.40
2022-11-08T10:08:53.630Z,41.65
2022-11-08T10:11:28.744Z,39.51
2022-11-08T10:14:07.394Z,40.04
2022-11-08T10:16:39.817Z,40.76
2022-11-08T10:19:18.287Z,39.67
2022-11-08T10:21:55.107Z,40.19
2022-11-08T10:24:35.119Z,40.31
2022-11-08T10:27:04.991Z,40.78
2022-11-08T10:29:37.108Z,41.13
2022-11-08T10:32:12.779Z,41.21
2022-11-08T10:34:44.568Z,41.37
2022-11-08T10:37:14.796Z,42.61
2022-11-08T10:39:45.716Z,41.24
2022-11-08T10:42:16.987Z,41.64
2022-11-08T10:44:46.824Z,41.86
2022-11-08T10:47:18.556Z,41.71
2022-11-08T10:49:46.320Z,43.90
2022-11-08T10:52:19.320Z,44.36
2022-11-08T10:54:49.338Z,43.19
2022-11-08T10:57:18.696Z,42.91
2022-11-08T10:59:47.921Z,43.03
2022-11-08T11:02:21.267Z,42.35
2022-11-08T11:04:49.633Z,42.99
2022-11-08T11:07:28.649Z,43.32
2022-11-08T11:09:56.539Z,44.61
2022-11-08T11:12:24.390Z,45.30
2022-11-08T11:14:59.322Z,45.03
2022-11-08T11:17:35.611Z,45.10
2022-11-08T11:20:18.272Z,44.96
2022-11-08T11:22:47.030Z,45.06
2022-11-08T11:25:17.409Z,44.91
2022-11-08T11:27:45.452Z,45.13
2022-11-08T11:30:28.142Z,45.09
2022-11-08T11:33:09.181Z,44.78
2022-11-08T11:35:46.184Z,44.96
2022-11-08T11:38:21.264Z,45.78
2022-11-08T11:40:49.839Z,45.98
2022-11-08T11:43:22.584Z,45.41
2022-11-08T11:45:56.010Z,45.30
2022-11-08T11:48:28.428Z,45.47
2022-11-08T11:50:57.391Z,45.73
2022-11-08T11:53:26.800Z,45.47
2022-11-08T11:56:31.013Z,45.67
2022-11-08T11:59:22.440Z,45.19
2022-11-08T12:02:00.338Z,44.79
2022-11-08T12:04:37.716Z,45.68
2022-11-08T12:07:11.631Z,45.88
2022-11-08T12:09:49.643Z,45.25
2022-11-08T12:12:26.854Z,45.16
2022-11-08T12:14:58.892Z,45.71
2022-11-08T12:17:42.690Z,45.30
2022-11-08T12:20:31.145Z,45.24
2022-11-08T12:23:10.549Z,45.35
2022-11-08T12:25:41.662Z,44.98
2022-11-08T12:28:24.501Z,44.28
2022-11-08T12:30:57.859Z,44.49
2022-11-08T12:33:33.987Z,43.45
2022-11-08T12:36:11.460Z,42.58
2022-11-08T12:38:57.158Z,40.50
2022-11-08T12:41:30.828Z,40.00
2022-11-08T12:44:12.609Z,39.21
2022-11-08T12:46:50.023Z,35.07
2022-11-08T12:49:29.731Z,32.72
2022-11-08T12:52:13.316Z,36.52
2022-11-08T12:54:42.988Z,37.40
2022-11-08T12:57:13.082Z,37.77
2022-11-08T12:59:43.612Z,36.97
2022-11-08T13:02:17.798Z,34.31
2022-11-08T13:04:53.373Z,34.12
2022-11-08T13:07:29.077Z,34.34
2022-11-08T13:10:01.060Z,33.48
2022-11-08T13:12:35.619Z,36.11
2022-11-08T13:15:05.158Z,37.99
2022-11-08T13:17:33.028Z,38.20
2022-11-08T13:20:07.506Z,39.34
2022-11-08T13:23:08.601Z,40.40
2022-11-08T13:25:38.137Z,41.12
2022-11-08T13:28:37.715Z,41.06
2022-11-08T13:31:24.652Z,41.17
2022-11-08T13:34:22.423Z,40.92
2022-11-08T13:37:02.817Z,42.92
2022-11-08T13:39:48.681Z,43.13
2022-11-08T13:42:32.620Z,43.17
2022-11-08T13:45:14.363Z,43.52
2022-11-08T13:47:59.411Z,42.97
2022-11-08T13:50:50.905Z,43.22
2022-11-08T13:53:49.766Z,44.82
2022-11-08T13:56:46.600Z,44.35
2022-11-08T13:59:50.866Z,43.17
2022-11-08T14:02:41.170Z,43.31
2022-11-08T14:05:23.506Z,45.01
2022-11-08T14:08:02.685Z,45.84
2022-11-08T14:10:36.520Z,45.96
2022-11-08T14:13:11.416Z,45.65
2022-11-08T14:15:44.440Z,46.51
2022-11-08T14:18:18.697Z,45.67
2022-11-08T14:20:48.121Z,46.78
2022-11-08T14:23:24.196Z,46.44
2022-11-08T14:25:54.617Z,46.98
2022-11-08T14:28:26.820Z,47.52
2022-11-08T14:30:55.120Z,47.83
2022-11-08T14:33:24.673Z,47.28
2022-11-08T14:35:57.788Z,46.95
2022-11-08T14:38:26.007Z,47.29
2022-11-08T14:40:56.192Z,47.79
2022-11-08T14:43:25.583Z,48.05
2022-11-08T14:45:53.598Z,48.40
2022-11-08T14:48:24.271Z,49.07
2022-11-08T14:50:59.247Z,49.86
2022-11-08T14:53:28.919Z,50.45
2022-11-08T14:56:09.329Z,50.66
2022-11-08T14:58:38.871Z,50.53
2022-11-08T15:01:07.523Z,50.80
2022-11-08T15:03:35.719Z,50.83
2022-11-08T15:06:10.935Z,50.79
2022-11-08T15:08:48.338Z,50.97
2022-11-08T15:11:28.414Z,50.27
2022-11-08T15:14:00.056Z,51.14
2022-11-08T15:16:27.961Z,51.73
2022-11-08T15:18:56.002Z,51.94
2022-11-08T15:21:29.160Z,52.42
2022-11-08T15:24:09.489Z,52.34
2022-11-08T15:26:37.625Z,52.50
2022-11-08T15:29:17.200Z,52.12
2022-11-08T15:31:48.614Z,52.00
2022-11-08T15:34:21.509Z,52.46
2022-11-08T15:36:49.884Z,52.85
2022-11-08T15:39:23.274Z,52.44
2022-11-08T15:42:01.728Z,52.73
2022-11-08T15:44:30.911Z,52.73
2022-11-08T15:46:58.749Z,52.54
2022-11-08T15:49:27.842Z,53.05
2022-11-08T15:51:58.332Z,52.57
2022-11-08T15:54:28.137Z,52.52
2022-11-08T15:56:56.692Z,53.08
2022-11-08T15:59:28.305Z,53.24
2022-11-08T16:01:58.950Z,53.57
2022-11-08T16:04:28.632Z,53.69
2022-11-08T16:06:56.745Z,53.97
2022-11-08T16:09:24.602Z,53.87
2022-11-08T16:11:52.677Z,53.80
2022-11-08T16:14:24.957Z,54.07
2022-11-08T16:16:52.921Z,53.58
2022-11-08T16:19:23.706Z,53.91
2022-11-08T16:21:52.021Z,54.23
2022-11-08T16:24:19.991Z,54.47
2022-11-08T16:26:48.061Z,54.97
2022-11-08T16:29:21.365Z,53.90
2022-11-08T16:31:49.978Z,54.98
2022-11-08T16:34:17.879Z,54.60
2022-11-08T16:36:48.622Z,53.76
2022-11-08T16:39:17.531Z,54.47
2022-11-08T16:41:45.670Z,54.99
2022-11-08T16:44:13.682Z,54.83
2022-11-08T16:46:41.964Z,54.59
2022-11-08T16:49:18.533Z,54.26
2022-11-08T16:51:47.603Z,54.84
2022-11-08T16:54:19.381Z,54.92
2022-11-08T16:56:47.101Z,55.00
2022-11-08T16:59:15.463Z,55.22
2022-11-08T17:01:43.863Z,54.52
2022-11-08T17:04:11.640Z,53.92
2022-11-08T17:06:39.479Z,54.11
2022-11-08T17:09:08.617Z,53.46
2022-11-08T17:11:38.108Z,54.41
2022-11-08T17:14:05.953Z,54.51
2022-11-08T17:16:34.051Z,54.21
2022-11-08T17:19:01.807Z,54.34
2022-11-08T17:21:44.405Z,54.55
2022-11-08T17:24:20.933Z,54.25
2022-11-08T17:26:49.609Z,53.95
2022-11-08T17:29:17.468Z,54.26
2022-11-08T17:31:45.256Z,54.20
2022-11-08T17:34:13.039Z,54.24
2022-11-08T17:36:40.787Z,54.20
2022-11-08T17:39:09.017Z,54.42
2022-11-08T17:41:38.094Z,54.22
2022-11-08T17:44:06.165Z,54.06
2022-11-08T17:46:33.935Z,54.43
2022-11-08T17:49:01.692Z,54.43
2022-11-08T17:51:29.481Z,53.77
2022-11-08T17:53:57.259Z,52.58
2022-11-08T17:56:25.074Z,51.96
2022-11-08T17:58:54.161Z,52.44
2022-11-08T18:01:21.997Z,53.48
2022-11-08T18:03:49.825Z,53.31
2022-11-08T18:06:17.599Z,53.16
2022-11-08T18:08:45.333Z,55.11
2022-11-08T18:11:13.181Z,55.94
2022-11-08T18:13:41.088Z,54.41
2022-11-08T18:16:11.832Z,54.61
2022-11-08T18:18:40.206Z,55.63
2022-11-08T18:21:08.643Z,55.40
2022-11-08T18:23:36.866Z,53.60
2022-11-08T18:26:05.081Z,52.80
2022-11-08T18:28:32.846Z,52.13
2022-11-08T18:31:05.819Z,52.55
2022-11-08T18:33:35.606Z,53.03
2022-11-08T18:36:04.824Z,53.14
2022-11-08T18:38:32.612Z,52.56
2022-11-08T18:41:00.357Z,52.43
2022-11-08T18:43:28.117Z,52.56
2022-11-08T18:45:55.833Z,52.94
2022-11-08T18:48:23.727Z,52.96
2022-11-08T18:50:52.849Z,53.32
2022-11-08T18:53:20.784Z,53.32
2022-11-08T18:55:48.994Z,53.06
2022-11-08T18:58:16.824Z,52.98
2022-11-08T19:00:44.545Z,52.69
2022-11-08T19:03:12.460Z,52.64
2022-11-08T19:05:43.297Z,52.68
2022-11-08T19:08:12.436Z,52.23
2022-11-08T19:10:40.223Z,52.35
2022-11-08T19:13:07.997Z,52.49
2022-11-08T19:15:35.728Z,52.56
2022-11-08T19:18:03.547Z,52.70
2022-11-08T19:20:31.497Z,52.76
2022-11-08T19:22:59.264Z,52.81
2022-11-08T19:25:28.557Z,53.16
2022-11-08T19:27:57.836Z,53.25
2022-11-08T19:30:25.782Z,53.57
2022-11-08T19:32:53.560Z,53.14
2022-11-08T19:35:21.324Z,53.25
2022-11-08T19:37:49.030Z,53.02
2022-11-08T19:40:16.908Z,53.35
2022-11-08T19:42:46.137Z,53.96
2022-11-08T19:45:13.897Z,53.60
2022-11-08T19:47:41.692Z,54.88
2022-11-08T19:50:09.847Z,53.25
2022-11-08T19:52:37.612Z,53.08
2022-11-08T19:55:07.032Z,55.13
2022-11-08T19:57:35.679Z,55.48
2022-11-08T20:00:06.105Z,55.91
2022-11-08T20:02:40.292Z,54.97
2022-11-08T20:05:08.566Z,55.85
2022-11-08T20:07:36.506Z,56.60
2022-11-08T20:10:04.691Z,56.45
2022-11-08T20:12:33.103Z,56.40
2022-11-08T20:15:00.884Z,56.77
2022-11-08T20:17:30.011Z,55.60
2022-11-08T20:19:57.762Z,55.35
2022-11-08T20:22:25.511Z,55.92
2022-11-08T20:24:53.364Z,55.85
2022-11-08T20:27:21.129Z,55.87
2022-11-08T20:29:48.943Z,55.42
2022-11-08T20:32:16.767Z,55.78
2022-11-08T20:34:46.067Z,55.92
2022-11-08T20:37:14.649Z,55.96
2022-11-08T20:39:42.491Z,57.29
2022-11-08T20:42:10.287Z,57.74
2022-11-08T20:44:38.083Z,57.41
2022-11-08T20:47:06.762Z,55.68
2022-11-08T20:49:34.800Z,55.64
2022-11-08T20:52:03.985Z,57.94
2022-11-08T20:54:31.734Z,56.72
2022-11-08T20:56:59.482Z,58.23
2022-11-08T20:59:27.276Z,56.62
2022-11-08T21:01:55.120Z,58.70
2022-11-08T21:04:23.142Z,58.92
2022-11-08T21:07:19.095Z,59.11
2022-11-08T21:09:49.797Z,57.70
2022-11-08T21:12:17.972Z,56.03
2022-11-08T21:14:45.854Z,56.28
2022-11-08T21:17:21.906Z,59.12
2022-11-08T21:19:51.823Z,57.73
2022-11-08T21:22:19.945Z,56.38
2022-11-08T21:24:49.492Z,57.81
2022-11-08T21:27:17.454Z,58.21
2022-11-08T21:29:45.206Z,56.95
2022-11-08T21:32:13.068Z,55.95
2022-11-08T21:34:45.349Z,56.40
2022-11-08T21:37:13.656Z,58.80
2022-11-08T21:39:41.538Z,59.67
2022-11-08T21:42:10.704Z,59.63
2022-11-08T21:44:38.532Z,58.92
2022-11-08T21:47:06.308Z,58.97
2022-11-08T21:49:34.075Z,59.04
2022-11-08T21:52:02.155Z,59.22
2022-11-08T21:54:29.947Z,58.20
2022-11-08T21:56:57.683Z,59.70
2022-11-08T21:59:26.768Z,59.03
2022-11-08T22:01:54.456Z,59.14
2022-11-08T22:04:22.252Z,59.26
2022-11-08T22:06:50.035Z,59.14
2022-11-08T22:09:17.840Z,59.61
2022-11-08T22:11:45.691Z,60.04
2022-11-08T22:14:13.452Z,60.08
2022-11-08T22:16:42.673Z,60.12
2022-11-08T22:19:10.727Z,60.15
2022-11-08T22:21:40.035Z,59.67
2022-11-08T22:24:09.854Z,58.80
2022-11-08T22:26:37.677Z,59.34
2022-11-08T22:29:05.622Z,58.89
2022-11-08T22:31:33.915Z,59.17
2022-11-08T22:34:03.268Z,59.49
2022-11-08T22:36:31.115Z,59.97
2022-11-08T22:38:58.974Z,59.94
2022-11-08T22:41:27.164Z,60.05
2022-11-08T22:43:55.018Z,59.78
2022-11-08T22:46:23.001Z,59.49
2022-11-08T22:48:50.929Z,60.16
2022-11-08T22:51:20.052Z,59.44
2022-11-08T22:53:47.808Z,58.25
2022-11-08T22:56:15.572Z,59.30
2022-11-08T22:58:43.318Z,58.20
2022-11-08T23:01:13.008Z,59.15
2022-11-08T23:03:40.766Z,59.03
2022-11-08T23:06:08.641Z,59.88
2022-11-08T23:08:37.736Z,60.01
2022-11-08T23:11:23.307Z,59.56
2022-11-08T23:14:08.833Z,59.76
2022-11-08T23:16:41.415Z,59.91
2022-11-08T23:19:28.411Z,59.42
2022-11-08T23:22:14.193Z,59.05
2022-11-08T23:24:43.977Z,59.31
2022-11-08T23:27:30.401Z,59.31
2022-11-08T23:30:15.510Z,59.75
2022-11-08T23:32:44.268Z,59.97
2022-11-08T23:35:12.932Z,59.93
2022-11-08T23:37:41.033Z,59.22
2022-11-08T23:40:30.052Z,60.13
2022-11-08T23:43:23.136Z,58.90
2022-11-08T23:45:51.003Z,59.17
2022-11-08T23:48:19.073Z,59.51
2022-11-08T23:50:51.251Z,59.71
2022-11-08T23:53:20.685Z,59.72
2022-11-08T23:55:50.077Z,59.79
2022-11-08T23:58:18.104Z,59.54
